sensor_id;sensor_type;location;lat;lon;timestamp;P1;durP1;ratioP1;P2;durP2;ratioP2
13443;SDS011;6794;59.218;18.218;2023-04-01T00:00:24;2.33;;;1.73;;
13443;SDS011;6794;59.218;18.218;2023-04-01T00:02:50;1.80;;;1.55;;
13443;SDS011;6794;59.218;18.218;2023-04-01T00:05:16;2.05;;;1.52;;
13443;SDS011;6794;59.218;18.218;2023-04-01T00:07:42;1.57;;;1.40;;
13443;SDS011;6794;59.218;18.218;2023-04-01T00:10:09;1.05;;;0.95;;
13443;SDS011;6794;59.218;18.218;2023-04-01T00:12:36;2.28;;;1.52;;
13443;SDS011;6794;59.218;18.218;2023-04-01T00:15:03;2.92;;;1.60;;
13443;SDS011;6794;59.218;18.218;2023-04-01T00:17:29;3.53;;;1.95;;
13443;SDS011;6794;59.218;18.218;2023-04-01T00:19:55;3.28;;;1.70;;
13443;SDS011;6794;59.218;18.218;2023-04-01T00:22:22;2.35;;;1.50;;
13443;SDS011;6794;59.218;18.218;2023-04-01T00:24:48;4.70;;;2.15;;
13443;SDS011;6794;59.218;18.218;2023-04-01T00:27:14;4.07;;;1.80;;
13443;SDS011;6794;59.218;18.218;2023-04-01T00:29:44;2.50;;;2.05;;
13443;SDS011;6794;59.218;18.218;2023-04-01T00:32:10;2.28;;;1.58;;
13443;SDS011;6794;59.218;18.218;2023-04-01T00:34:36;3.00;;;1.90;;
13443;SDS011;6794;59.218;18.218;2023-04-01T00:37:03;2.43;;;1.70;;
13443;SDS011;6794;59.218;18.218;2023-04-01T00:39:29;2.20;;;1.70;;
13443;SDS011;6794;59.218;18.218;2023-04-01T00:41:56;4.18;;;1.60;;
13443;SDS011;6794;59.218;18.218;2023-04-01T00:44:23;2.75;;;1.75;;
13443;SDS011;6794;59.218;18.218;2023-04-01T00:46:50;1.70;;;1.60;;
13443;SDS011;6794;59.218;18.218;2023-04-01T00:49:17;1.60;;;1.38;;
13443;SDS011;6794;59.218;18.218;2023-04-01T00:51:45;2.00;;;1.50;;
13443;SDS011;6794;59.218;18.218;2023-04-01T00:54:12;1.83;;;1.30;;
13443;SDS011;6794;59.218;18.218;2023-04-01T00:56:46;4.32;;;1.60;;
13443;SDS011;6794;59.218;18.218;2023-04-01T00:59:17;3.15;;;2.05;;
13443;SDS011;6794;59.218;18.218;2023-04-01T01:01:44;2.85;;;1.70;;
13443;SDS011;6794;59.218;18.218;2023-04-01T01:04:24;3.37;;;1.77;;
13443;SDS011;6794;59.218;18.218;2023-04-01T01:07:02;1.98;;;1.60;;
13443;SDS011;6794;59.218;18.218;2023-04-01T01:16:55;4.95;;;2.83;;
13443;SDS011;6794;59.218;18.218;2023-04-01T01:27:23;3.47;;;1.90;;
13443;SDS011;6794;59.218;18.218;2023-04-01T01:35:27;3.42;;;1.98;;
13443;SDS011;6794;59.218;18.218;2023-04-01T01:37:28;2.65;;;1.63;;
13443;SDS011;6794;59.218;18.218;2023-04-01T01:39:56;1.77;;;1.50;;
13443;SDS011;6794;59.218;18.218;2023-04-01T01:42:24;1.73;;;1.30;;
13443;SDS011;6794;59.218;18.218;2023-04-01T01:44:51;2.78;;;1.40;;
13443;SDS011;6794;59.218;18.218;2023-04-01T01:47:17;3.22;;;1.38;;
13443;SDS011;6794;59.218;18.218;2023-04-01T01:49:44;3.13;;;1.30;;
13443;SDS011;6794;59.218;18.218;2023-04-01T01:52:12;2.40;;;1.55;;
13443;SDS011;6794;59.218;18.218;2023-04-01T01:54:48;2.65;;;1.70;;
13443;SDS011;6794;59.218;18.218;2023-04-01T01:57:14;6.10;;;1.80;;
13443;SDS011;6794;59.218;18.218;2023-04-01T01:59:41;3.38;;;1.50;;
13443;SDS011;6794;59.218;18.218;2023-04-01T02:02:08;2.55;;;1.60;;
13443;SDS011;6794;59.218;18.218;2023-04-01T02:04:36;3.40;;;1.35;;
13443;SDS011;6794;59.218;18.218;2023-04-01T02:07:04;2.67;;;1.60;;
13443;SDS011;6794;59.218;18.218;2023-04-01T02:09:32;2.10;;;1.60;;
13443;SDS011;6794;59.218;18.218;2023-04-01T02:12:00;1.45;;;1.20;;
13443;SDS011;6794;59.218;18.218;2023-04-01T02:14:34;3.80;;;1.60;;
13443;SDS011;6794;59.218;18.218;2023-04-01T02:17:20;2.92;;;1.77;;
13443;SDS011;6794;59.218;18.218;2023-04-01T02:22:13;2.00;;;1.42;;
13443;SDS011;6794;59.218;18.218;2023-04-01T02:24:42;3.20;;;1.58;;
13443;SDS011;6794;59.218;18.218;2023-04-01T02:27:10;1.73;;;1.40;;
13443;SDS011;6794;59.218;18.218;2023-04-01T02:29:36;1.80;;;1.40;;
13443;SDS011;6794;59.218;18.218;2023-04-01T02:32:02;2.03;;;1.30;;
13443;SDS011;6794;59.218;18.218;2023-04-01T02:34:29;3.70;;;1.45;;
13443;SDS011;6794;59.218;18.218;2023-04-01T02:36:55;2.03;;;1.40;;
13443;SDS011;6794;59.218;18.218;2023-04-01T02:39:22;1.27;;;1.05;;
13443;SDS011;6794;59.218;18.218;2023-04-01T02:41:50;1.95;;;1.48;;
13443;SDS011;6794;59.218;18.218;2023-04-01T02:44:16;2.25;;;1.35;;
13443;SDS011;6794;59.218;18.218;2023-04-01T02:46:42;1.83;;;1.43;;
13443;SDS011;6794;59.218;18.218;2023-04-01T02:49:08;2.83;;;1.30;;
13443;SDS011;6794;59.218;18.218;2023-04-01T02:51:34;2.03;;;1.33;;
13443;SDS011;6794;59.218;18.218;2023-04-01T02:54:00;3.35;;;1.50;;
13443;SDS011;6794;59.218;18.218;2023-04-01T02:56:27;2.15;;;1.50;;
13443;SDS011;6794;59.218;18.218;2023-04-01T02:58:53;2.30;;;1.43;;
13443;SDS011;6794;59.218;18.218;2023-04-01T03:01:20;2.22;;;1.17;;
13443;SDS011;6794;59.218;18.218;2023-04-01T03:03:46;1.45;;;1.13;;
13443;SDS011;6794;59.218;18.218;2023-04-01T03:06:13;3.67;;;1.60;;
13443;SDS011;6794;59.218;18.218;2023-04-01T03:08:39;1.80;;;1.30;;
13443;SDS011;6794;59.218;18.218;2023-04-01T03:11:05;2.83;;;1.27;;
13443;SDS011;6794;59.218;18.218;2023-04-01T03:13:31;2.30;;;1.35;;
13443;SDS011;6794;59.218;18.218;2023-04-01T03:15:57;2.85;;;1.58;;
13443;SDS011;6794;59.218;18.218;2023-04-01T03:18:24;4.90;;;2.25;;
13443;SDS011;6794;59.218;18.218;2023-04-01T03:20:50;6.25;;;3.80;;
13443;SDS011;6794;59.218;18.218;2023-04-01T03:23:16;2.78;;;1.90;;
13443;SDS011;6794;59.218;18.218;2023-04-01T03:25:44;4.05;;;2.00;;
13443;SDS011;6794;59.218;18.218;2023-04-01T03:28:10;4.57;;;1.83;;
13443;SDS011;6794;59.218;18.218;2023-04-01T03:30:37;4.20;;;1.90;;
13443;SDS011;6794;59.218;18.218;2023-04-01T03:33:03;2.58;;;1.50;;
13443;SDS011;6794;59.218;18.218;2023-04-01T03:35:29;1.70;;;1.20;;
13443;SDS011;6794;59.218;18.218;2023-04-01T03:37:55;2.58;;;1.50;;
13443;SDS011;6794;59.218;18.218;2023-04-01T03:40:21;1.98;;;1.33;;
13443;SDS011;6794;59.218;18.218;2023-04-01T03:42:48;3.47;;;1.50;;
13443;SDS011;6794;59.218;18.218;2023-04-01T03:45:14;1.52;;;1.13;;
13443;SDS011;6794;59.218;18.218;2023-04-01T03:47:40;1.60;;;1.10;;
13443;SDS011;6794;59.218;18.218;2023-04-01T03:50:06;3.17;;;1.20;;
13443;SDS011;6794;59.218;18.218;2023-04-01T03:52:33;4.28;;;1.73;;
13443;SDS011;6794;59.218;18.218;2023-04-01T03:55:00;1.60;;;1.25;;
13443;SDS011;6794;59.218;18.218;2023-04-01T03:57:26;2.60;;;1.52;;
13443;SDS011;6794;59.218;18.218;2023-04-01T03:59:52;3.08;;;2.05;;
13443;SDS011;6794;59.218;18.218;2023-04-01T04:02:18;2.92;;;1.45;;
13443;SDS011;6794;59.218;18.218;2023-04-01T04:04:44;2.83;;;1.55;;
13443;SDS011;6794;59.218;18.218;2023-04-01T04:07:11;4.45;;;2.00;;
13443;SDS011;6794;59.218;18.218;2023-04-01T04:09:37;2.60;;;1.52;;
13443;SDS011;6794;59.218;18.218;2023-04-01T04:12:03;2.42;;;1.40;;
13443;SDS011;6794;59.218;18.218;2023-04-01T04:14:30;2.95;;;1.50;;
13443;SDS011;6794;59.218;18.218;2023-04-01T04:16:56;1.73;;;1.42;;
13443;SDS011;6794;59.218;18.218;2023-04-01T04:19:22;3.22;;;1.50;;
13443;SDS011;6794;59.218;18.218;2023-04-01T04:21:49;1.70;;;1.27;;
13443;SDS011;6794;59.218;18.218;2023-04-01T04:24:15;1.33;;;0.98;;
13443;SDS011;6794;59.218;18.218;2023-04-01T04:26:41;3.10;;;1.30;;
13443;SDS011;6794;59.218;18.218;2023-04-01T04:29:07;1.83;;;1.50;;
13443;SDS011;6794;59.218;18.218;2023-04-01T04:31:33;3.35;;;2.20;;
13443;SDS011;6794;59.218;18.218;2023-04-01T04:33:59;2.33;;;1.30;;
13443;SDS011;6794;59.218;18.218;2023-04-01T04:36:26;2.60;;;1.63;;
13443;SDS011;6794;59.218;18.218;2023-04-01T04:38:52;2.40;;;1.40;;
13443;SDS011;6794;59.218;18.218;2023-04-01T04:41:19;1.45;;;1.30;;
13443;SDS011;6794;59.218;18.218;2023-04-01T04:43:54;4.47;;;1.70;;
13443;SDS011;6794;59.218;18.218;2023-04-01T04:46:20;3.35;;;1.60;;
13443;SDS011;6794;59.218;18.218;2023-04-01T04:48:46;1.55;;;1.30;;
13443;SDS011;6794;59.218;18.218;2023-04-01T04:51:16;1.63;;;1.17;;
13443;SDS011;6794;59.218;18.218;2023-04-01T04:53:43;1.90;;;1.15;;
13443;SDS011;6794;59.218;18.218;2023-04-01T04:56:09;4.35;;;1.00;;
13443;SDS011;6794;59.218;18.218;2023-04-01T04:58:36;1.10;;;1.00;;
13443;SDS011;6794;59.218;18.218;2023-04-01T05:01:09;1.48;;;1.27;;
13443;SDS011;6794;59.218;18.218;2023-04-01T05:03:35;2.40;;;1.42;;
13443;SDS011;6794;59.218;18.218;2023-04-01T05:06:01;1.90;;;1.40;;
13443;SDS011;6794;59.218;18.218;2023-04-01T05:08:28;2.67;;;1.50;;
13443;SDS011;6794;59.218;18.218;2023-04-01T05:10:54;3.60;;;1.80;;
13443;SDS011;6794;59.218;18.218;2023-04-01T05:13:20;4.03;;;1.42;;
13443;SDS011;6794;59.218;18.218;2023-04-01T05:15:46;4.50;;;1.63;;
13443;SDS011;6794;59.218;18.218;2023-04-01T05:18:12;2.67;;;1.88;;
13443;SDS011;6794;59.218;18.218;2023-04-01T05:20:38;2.78;;;1.77;;
13443;SDS011;6794;59.218;18.218;2023-04-01T05:23:04;2.22;;;1.85;;
13443;SDS011;6794;59.218;18.218;2023-04-01T05:25:30;5.65;;;2.17;;
13443;SDS011;6794;59.218;18.218;2023-04-01T05:27:56;2.30;;;1.93;;
13443;SDS011;6794;59.218;18.218;2023-04-01T05:30:22;3.17;;;2.05;;
13443;SDS011;6794;59.218;18.218;2023-04-01T05:32:48;2.17;;;1.60;;
13443;SDS011;6794;59.218;18.218;2023-04-01T05:35:14;2.88;;;1.13;;
13443;SDS011;6794;59.218;18.218;2023-04-01T05:37:40;1.05;;;0.95;;
13443;SDS011;6794;59.218;18.218;2023-04-01T05:40:06;2.60;;;1.55;;
13443;SDS011;6794;59.218;18.218;2023-04-01T05:42:33;4.70;;;2.00;;
13443;SDS011;6794;59.218;18.218;2023-04-01T05:44:59;2.90;;;1.17;;
13443;SDS011;6794;59.218;18.218;2023-04-01T05:47:25;3.67;;;1.50;;
13443;SDS011;6794;59.218;18.218;2023-04-01T05:49:51;2.20;;;1.30;;
13443;SDS011;6794;59.218;18.218;2023-04-01T05:52:17;2.40;;;1.40;;
13443;SDS011;6794;59.218;18.218;2023-04-01T05:54:43;2.45;;;1.30;;
13443;SDS011;6794;59.218;18.218;2023-04-01T05:57:09;1.90;;;1.10;;
13443;SDS011;6794;59.218;18.218;2023-04-01T05:59:35;1.63;;;1.17;;
13443;SDS011;6794;59.218;18.218;2023-04-01T06:02:01;1.80;;;1.37;;
13443;SDS011;6794;59.218;18.218;2023-04-01T06:04:28;2.80;;;1.30;;
13443;SDS011;6794;59.218;18.218;2023-04-01T06:06:57;1.30;;;1.20;;
13443;SDS011;6794;59.218;18.218;2023-04-01T06:09:27;4.47;;;1.60;;
13443;SDS011;6794;59.218;18.218;2023-04-01T06:11:57;4.20;;;1.60;;
13443;SDS011;6794;59.218;18.218;2023-04-01T06:17:13;2.95;;;1.30;;
13443;SDS011;6794;59.218;18.218;2023-04-01T06:19:53;2.00;;;1.40;;
13443;SDS011;6794;59.218;18.218;2023-04-01T06:22:22;3.87;;;2.00;;
13443;SDS011;6794;59.218;18.218;2023-04-01T06:53:13;2.90;;;2.70;;
13443;SDS011;6794;59.218;18.218;2023-04-01T06:55:47;2.33;;;2.23;;
13443;SDS011;6794;59.218;18.218;2023-04-01T06:58:25;0.90;;;0.47;;
13443;SDS011;6794;59.218;18.218;2023-04-01T07:00:53;2.20;;;0.80;;
13443;SDS011;6794;59.218;18.218;2023-04-01T07:03:21;3.70;;;0.93;;
13443;SDS011;6794;59.218;18.218;2023-04-01T07:05:48;1.30;;;0.97;;
13443;SDS011;6794;59.218;18.218;2023-04-01T07:08:20;3.47;;;1.10;;
13443;SDS011;6794;59.218;18.218;2023-04-01T07:10:53;1.37;;;1.00;;
13443;SDS011;6794;59.218;18.218;2023-04-01T07:13:27;1.93;;;0.77;;
13443;SDS011;6794;59.218;18.218;2023-04-01T07:18:44;1.67;;;1.00;;
13443;SDS011;6794;59.218;18.218;2023-04-01T07:21:28;1.23;;;0.70;;
13443;SDS011;6794;59.218;18.218;2023-04-01T07:23:56;1.23;;;0.57;;
13443;SDS011;6794;59.218;18.218;2023-04-01T07:26:25;3.33;;;1.10;;
13443;SDS011;6794;59.218;18.218;2023-04-01T07:28:52;2.22;;;1.00;;
13443;SDS011;6794;59.218;18.218;2023-04-01T07:31:21;1.80;;;0.80;;
13443;SDS011;6794;59.218;18.218;2023-04-01T07:39:28;1.43;;;0.80;;
13443;SDS011;6794;59.218;18.218;2023-04-01T07:44:27;1.07;;;0.77;;
13443;SDS011;6794;59.218;18.218;2023-04-01T07:49:35;3.03;;;1.00;;
13443;SDS011;6794;59.218;18.218;2023-04-01T07:52:08;2.00;;;0.70;;
13443;SDS011;6794;59.218;18.218;2023-04-01T07:54:49;1.67;;;1.00;;
13443;SDS011;6794;59.218;18.218;2023-04-01T08:10:19;2.20;;;1.00;;
13443;SDS011;6794;59.218;18.218;2023-04-01T08:15:35;2.30;;;1.00;;
13443;SDS011;6794;59.218;18.218;2023-04-01T08:20:53;1.30;;;0.67;;
13443;SDS011;6794;59.218;18.218;2023-04-01T08:23:24;0.93;;;0.90;;
13443;SDS011;6794;59.218;18.218;2023-04-01T08:25:53;1.03;;;0.93;;
13443;SDS011;6794;59.218;18.218;2023-04-01T08:31:02;1.73;;;1.20;;
13443;SDS011;6794;59.218;18.218;2023-04-01T08:33:30;1.88;;;0.93;;
13443;SDS011;6794;59.218;18.218;2023-04-01T08:35:59;1.47;;;1.10;;
13443;SDS011;6794;59.218;18.218;2023-04-01T08:41:00;1.87;;;1.10;;
13443;SDS011;6794;59.218;18.218;2023-04-01T08:59:14;1.85;;;0.80;;
13443;SDS011;6794;59.218;18.218;2023-04-01T09:02:04;0.97;;;0.67;;
13443;SDS011;6794;59.218;18.218;2023-04-01T09:22:51;1.37;;;0.87;;
13443;SDS011;6794;59.218;18.218;2023-04-01T09:28:10;2.47;;;0.70;;
13443;SDS011;6794;59.218;18.218;2023-04-01T09:33:19;2.60;;;1.00;;
13443;SDS011;6794;59.218;18.218;2023-04-01T09:35:49;1.60;;;0.80;;
13443;SDS011;6794;59.218;18.218;2023-04-01T09:38:37;1.88;;;1.05;;
13443;SDS011;6794;59.218;18.218;2023-04-01T09:41:20;0.60;;;0.57;;
13443;SDS011;6794;59.218;18.218;2023-04-01T09:49:00;0.87;;;0.47;;
13443;SDS011;6794;59.218;18.218;2023-04-01T09:59:03;1.47;;;0.60;;
13443;SDS011;6794;59.218;18.218;2023-04-01T10:01:39;0.83;;;0.57;;
13443;SDS011;6794;59.218;18.218;2023-04-01T10:04:30;2.93;;;0.60;;
13443;SDS011;6794;59.218;18.218;2023-04-01T10:38:26;0.93;;;0.50;;
13443;SDS011;6794;59.218;18.218;2023-04-01T10:48:51;0.20;;;0.20;;
13443;SDS011;6794;59.218;18.218;2023-04-01T10:56:32;0.90;;;0.50;;
13443;SDS011;6794;59.218;18.218;2023-04-01T11:07:09;0.85;;;0.50;;
13443;SDS011;6794;59.218;18.218;2023-04-01T11:18:03;0.45;;;0.30;;
13443;SDS011;6794;59.218;18.218;2023-04-01T11:29:19;0.50;;;0.30;;
13443;SDS011;6794;59.218;18.218;2023-04-01T11:32:06;1.27;;;0.60;;
13443;SDS011;6794;59.218;18.218;2023-04-01T11:42:49;0.55;;;0.40;;
13443;SDS011;6794;59.218;18.218;2023-04-01T11:47:54;1.40;;;0.40;;
13443;SDS011;6794;59.218;18.218;2023-04-01T11:53:15;0.60;;;0.43;;
13443;SDS011;6794;59.218;18.218;2023-04-01T11:55:51;0.60;;;0.40;;
13443;SDS011;6794;59.218;18.218;2023-04-01T11:58:32;0.37;;;0.37;;
13443;SDS011;6794;59.218;18.218;2023-04-01T12:01:33;0.80;;;0.50;;
13443;SDS011;6794;59.218;18.218;2023-04-01T12:11:46;0.37;;;0.30;;
13443;SDS011;6794;59.218;18.218;2023-04-01T12:14:19;0.90;;;0.50;;
13443;SDS011;6794;59.218;18.218;2023-04-01T12:16:51;0.73;;;0.30;;
13443;SDS011;6794;59.218;18.218;2023-04-01T12:29:49;0.43;;;0.40;;
13443;SDS011;6794;59.218;18.218;2023-04-01T12:45:18;2.10;;;0.40;;
13443;SDS011;6794;59.218;18.218;2023-04-01T12:50:35;2.40;;;0.70;;
13443;SDS011;6794;59.218;18.218;2023-04-01T12:53:10;0.60;;;0.60;;
13443;SDS011;6794;59.218;18.218;2023-04-01T12:55:41;1.23;;;0.50;;
13443;SDS011;6794;59.218;18.218;2023-04-01T13:08:39;0.40;;;0.40;;
13443;SDS011;6794;59.218;18.218;2023-04-01T13:13:45;0.73;;;0.40;;
13443;SDS011;6794;59.218;18.218;2023-04-01T13:16:20;1.40;;;0.50;;
13443;SDS011;6794;59.218;18.218;2023-04-01T13:21:37;0.20;;;0.20;;
13443;SDS011;6794;59.218;18.218;2023-04-01T13:24:11;0.87;;;0.20;;
13443;SDS011;6794;59.218;18.218;2023-04-01T13:29:29;0.47;;;0.43;;
13443;SDS011;6794;59.218;18.218;2023-04-01T13:39:36;2.73;;;0.40;;
13443;SDS011;6794;59.218;18.218;2023-04-01T13:44:35;1.23;;;0.50;;
13443;SDS011;6794;59.218;18.218;2023-04-01T13:47:06;0.80;;;0.63;;
13443;SDS011;6794;59.218;18.218;2023-04-01T13:55:26;1.00;;;0.50;;
13443;SDS011;6794;59.218;18.218;2023-04-01T14:02:50;1.13;;;0.47;;
13443;SDS011;6794;59.218;18.218;2023-04-01T14:07:56;0.73;;;0.50;;
13443;SDS011;6794;59.218;18.218;2023-04-01T14:13:06;0.20;;;0.20;;
13443;SDS011;6794;59.218;18.218;2023-04-01T14:20:38;0.97;;;0.40;;
13443;SDS011;6794;59.218;18.218;2023-04-01T14:28:28;1.00;;;0.50;;
13443;SDS011;6794;59.218;18.218;2023-04-01T14:31:18;0.80;;;0.30;;
13443;SDS011;6794;59.218;18.218;2023-04-01T14:41:19;1.77;;;0.50;;
13443;SDS011;6794;59.218;18.218;2023-04-01T14:44:09;0.93;;;0.60;;
13443;SDS011;6794;59.218;18.218;2023-04-01T14:49:23;0.77;;;0.60;;
13443;SDS011;6794;59.218;18.218;2023-04-01T14:51:50;0.63;;;0.43;;
13443;SDS011;6794;59.218;18.218;2023-04-01T14:54:18;0.40;;;0.40;;
13443;SDS011;6794;59.218;18.218;2023-04-01T14:56:49;0.90;;;0.50;;
13443;SDS011;6794;59.218;18.218;2023-04-01T15:14:51;2.60;;;0.50;;
13443;SDS011;6794;59.218;18.218;2023-04-01T15:22:29;1.93;;;0.63;;
13443;SDS011;6794;59.218;18.218;2023-04-01T15:27:33;1.87;;;0.80;;
13443;SDS011;6794;59.218;18.218;2023-04-01T15:48:13;0.73;;;0.60;;
13443;SDS011;6794;59.218;18.218;2023-04-01T15:50:51;1.33;;;0.60;;
13443;SDS011;6794;59.218;18.218;2023-04-01T16:01:29;1.60;;;0.90;;
13443;SDS011;6794;59.218;18.218;2023-04-01T16:09:02;1.60;;;0.70;;
13443;SDS011;6794;59.218;18.218;2023-04-01T16:14:28;1.88;;;0.80;;
13443;SDS011;6794;59.218;18.218;2023-04-01T16:19:27;2.73;;;1.00;;
13443;SDS011;6794;59.218;18.218;2023-04-01T16:24:41;1.20;;;0.80;;
13443;SDS011;6794;59.218;18.218;2023-04-01T16:34:55;1.53;;;0.83;;
13443;SDS011;6794;59.218;18.218;2023-04-01T16:37:59;1.77;;;1.00;;
13443;SDS011;6794;59.218;18.218;2023-04-01T16:48:21;1.70;;;0.50;;
13443;SDS011;6794;59.218;18.218;2023-04-01T16:58:14;3.77;;;1.03;;
13443;SDS011;6794;59.218;18.218;2023-04-01T17:00:48;3.03;;;0.90;;
13443;SDS011;6794;59.218;18.218;2023-04-01T17:13:20;2.77;;;1.30;;
13443;SDS011;6794;59.218;18.218;2023-04-01T17:16:14;1.23;;;0.93;;
13443;SDS011;6794;59.218;18.218;2023-04-01T17:26:47;1.70;;;0.90;;
13443;SDS011;6794;59.218;18.218;2023-04-01T17:29:28;1.87;;;0.87;;
13443;SDS011;6794;59.218;18.218;2023-04-01T17:42:19;1.93;;;1.10;;
13443;SDS011;6794;59.218;18.218;2023-04-01T17:52:27;4.97;;;1.60;;
13443;SDS011;6794;59.218;18.218;2023-04-01T17:57:39;3.53;;;1.40;;
13443;SDS011;6794;59.218;18.218;2023-04-01T18:00:16;6.10;;;1.83;;
13443;SDS011;6794;59.218;18.218;2023-04-01T18:07:44;2.33;;;1.53;;
13443;SDS011;6794;59.218;18.218;2023-04-01T18:13:08;2.30;;;1.37;;
13443;SDS011;6794;59.218;18.218;2023-04-01T18:15:58;2.47;;;1.17;;
13443;SDS011;6794;59.218;18.218;2023-04-01T18:21:25;3.90;;;1.45;;
13443;SDS011;6794;59.218;18.218;2023-04-01T18:26:39;3.90;;;1.30;;
13443;SDS011;6794;59.218;18.218;2023-04-01T18:29:23;3.47;;;1.23;;
13443;SDS011;6794;59.218;18.218;2023-04-01T18:37:28;4.10;;;1.30;;
13443;SDS011;6794;59.218;18.218;2023-04-01T18:39:57;5.63;;;1.20;;
13443;SDS011;6794;59.218;18.218;2023-04-01T18:42:31;4.00;;;1.10;;
13443;SDS011;6794;59.218;18.218;2023-04-01T18:50:32;2.10;;;0.97;;
13443;SDS011;6794;59.218;18.218;2023-04-01T18:53:13;3.90;;;1.23;;
13443;SDS011;6794;59.218;18.218;2023-04-01T18:55:42;3.90;;;1.65;;
13443;SDS011;6794;59.218;18.218;2023-04-01T19:00:55;9.13;;;2.13;;
13443;SDS011;6794;59.218;18.218;2023-04-01T19:06:17;3.63;;;1.80;;
13443;SDS011;6794;59.218;18.218;2023-04-01T19:08:45;2.77;;;1.17;;
13443;SDS011;6794;59.218;18.218;2023-04-01T19:11:15;6.10;;;1.50;;
13443;SDS011;6794;59.218;18.218;2023-04-01T19:21:43;2.23;;;1.07;;
13443;SDS011;6794;59.218;18.218;2023-04-01T19:27:18;3.40;;;1.80;;
13443;SDS011;6794;59.218;18.218;2023-04-01T19:32:25;3.00;;;1.43;;
13443;SDS011;6794;59.218;18.218;2023-04-01T19:40:55;3.00;;;1.20;;
13443;SDS011;6794;59.218;18.218;2023-04-01T19:53:57;3.47;;;1.60;;
13443;SDS011;6794;59.218;18.218;2023-04-01T19:56:25;4.00;;;1.37;;
13443;SDS011;6794;59.218;18.218;2023-04-01T19:58:59;10.07;;;1.73;;
13443;SDS011;6794;59.218;18.218;2023-04-01T20:01:35;5.20;;;1.43;;
13443;SDS011;6794;59.218;18.218;2023-04-01T20:04:14;6.53;;;1.83;;
13443;SDS011;6794;59.218;18.218;2023-04-01T20:06:50;6.60;;;1.70;;
13443;SDS011;6794;59.218;18.218;2023-04-01T20:09:53;4.97;;;1.27;;
13443;SDS011;6794;59.218;18.218;2023-04-01T20:14:46;9.50;;;2.10;;
13443;SDS011;6794;59.218;18.218;2023-04-01T20:25:15;4.20;;;1.80;;
13443;SDS011;6794;59.218;18.218;2023-04-01T20:27:53;5.00;;;1.98;;
13443;SDS011;6794;59.218;18.218;2023-04-01T20:35:43;5.50;;;2.47;;
13443;SDS011;6794;59.218;18.218;2023-04-01T20:40:46;5.27;;;1.50;;
13443;SDS011;6794;59.218;18.218;2023-04-01T20:43:29;3.40;;;1.23;;
13443;SDS011;6794;59.218;18.218;2023-04-01T20:50:59;4.30;;;1.43;;
13443;SDS011;6794;59.218;18.218;2023-04-01T20:53:34;5.97;;;1.50;;
13443;SDS011;6794;59.218;18.218;2023-04-01T21:03:53;3.97;;;1.40;;
13443;SDS011;6794;59.218;18.218;2023-04-01T21:09:17;7.67;;;2.03;;
13443;SDS011;6794;59.218;18.218;2023-04-01T21:35:26;4.43;;;1.50;;
13443;SDS011;6794;59.218;18.218;2023-04-01T21:38:02;5.07;;;1.53;;
13443;SDS011;6794;59.218;18.218;2023-04-01T21:40:46;5.67;;;1.70;;
13443;SDS011;6794;59.218;18.218;2023-04-01T22:06:37;5.20;;;1.80;;
13443;SDS011;6794;59.218;18.218;2023-04-01T22:09:18;6.27;;;1.50;;
13443;SDS011;6794;59.218;18.218;2023-04-01T22:11:57;8.03;;;1.80;;
13443;SDS011;6794;59.218;18.218;2023-04-01T22:16:59;5.23;;;1.50;;
13443;SDS011;6794;59.218;18.218;2023-04-01T22:22:21;5.68;;;1.90;;
13443;SDS011;6794;59.218;18.218;2023-04-01T22:33:07;5.53;;;1.40;;
13443;SDS011;6794;59.218;18.218;2023-04-01T22:40:25;2.67;;;1.30;;
13443;SDS011;6794;59.218;18.218;2023-04-01T22:42:56;4.67;;;1.33;;
13443;SDS011;6794;59.218;18.218;2023-04-01T22:45:33;5.20;;;1.30;;
13443;SDS011;6794;59.218;18.218;2023-04-01T22:48:09;3.63;;;1.23;;
13443;SDS011;6794;59.218;18.218;2023-04-01T22:55:48;4.45;;;1.48;;
13443;SDS011;6794;59.218;18.218;2023-04-01T22:58:19;4.57;;;1.17;;
13443;SDS011;6794;59.218;18.218;2023-04-01T23:00:58;4.87;;;1.37;;
13443;SDS011;6794;59.218;18.218;2023-04-01T23:05:54;7.77;;;1.57;;
13443;SDS011;6794;59.218;18.218;2023-04-01T23:10:57;1.77;;;1.00;;
13443;SDS011;6794;59.218;18.218;2023-04-01T23:13:44;4.60;;;1.40;;
13443;SDS011;6794;59.218;18.218;2023-04-01T23:16:13;2.50;;;1.33;;
13443;SDS011;6794;59.218;18.218;2023-04-01T23:21:18;2.20;;;1.43;;
13443;SDS011;6794;59.218;18.218;2023-04-01T23:23:57;5.47;;;1.77;;
13443;SDS011;6794;59.218;18.218;2023-04-01T23:26:32;2.70;;;1.40;;
13443;SDS011;6794;59.218;18.218;2023-04-01T23:29:00;2.73;;;1.30;;
13443;SDS011;6794;59.218;18.218;2023-04-01T23:34:03;5.23;;;1.27;;
13443;SDS011;6794;59.218;18.218;2023-04-01T23:36:30;3.37;;;1.27;;
13443;SDS011;6794;59.218;18.218;2023-04-01T23:38:56;3.80;;;1.57;;
13443;SDS011;6794;59.218;18.218;2023-04-01T23:41:26;2.67;;;1.13;;
13443;SDS011;6794;59.218;18.218;2023-04-01T23:44:01;4.47;;;1.00;;
13443;SDS011;6794;59.218;18.218;2023-04-01T23:46:28;2.50;;;1.30;;
13443;SDS011;6794;59.218;18.218;2023-04-01T23:48:55;4.47;;;1.10;;
13443;SDS011;6794;59.218;18.218;2023-04-01T23:51:25;6.57;;;1.50;;
13443;SDS011;6794;59.218;18.218;2023-04-01T23:54:02;7.77;;;1.47;;
13443;SDS011;6794;59.218;18.218;2023-04-01T23:56:39;2.37;;;1.20;;
